Time;durP1;ratioP1;P1;durP2;ratioP2;P2;SDS_P1;SDS_P2;PMS_P1;PMS_P2;Temp;Humidity;BMP_temperature;BMP_pressure;BME280_temperature;BME280_humidity;BME280_pressure;Samples;Min_cycle;Max_cycle;Signal;HPM_P1;HPM_P2
2022/01/10 00:02:14;;;;;;;49.67;6.93;;;;;;;3.13;100.00;97217.47;5066546;28;20597;-73
2022/01/10 00:04:40;;;;;;;50.67;7.43;;;;;;;3.98;100.00;97214.88;5066332;28;21136;-73
2022/01/10 00:07:07;;;;;;;42.67;7.27;;;;;;;4.10;100.00;97216.44;5066281;28;20668;-75
2022/01/10 00:09:34;;;;;;;52.33;8.33;;;;;;;4.18;100.00;97226.59;5066124;28;21012;-74
2022/01/10 00:12:00;;;;;;;79.83;10.00;;;;;;;4.16;100.00;97220.75;5066323;28;20662;-74
2022/01/10 00:14:27;;;;;;;51.77;7.47;;;;;;;4.21;100.00;97223.47;5065220;28;20656;-74
2022/01/10 00:16:55;;;;;;;46.10;6.83;;;;;;;4.25;100.00;97219.31;5057065;28;20672;-74
2022/01/10 00:19:22;;;;;;;45.27;6.00;;;;;;;4.21;100.00;97217.38;5065791;28;20622;-74
2022/01/10 00:21:49;;;;;;;29.10;4.67;;;;;;;4.13;100.00;97218.59;5066824;28;21563;-74
2022/01/10 00:24:16;;;;;;;47.10;5.57;;;;;;;3.98;100.00;97220.97;5065560;28;20615;-75
2022/01/10 00:26:42;;;;;;;28.83;4.90;;;;;;;4.06;100.00;97220.56;5066512;28;20602;-75
2022/01/10 00:29:09;;;;;;;53.17;5.07;;;;;;;4.05;100.00;97211.06;5067159;28;20687;-74
2022/01/10 00:31:36;;;;;;;28.63;4.40;;;;;;;4.09;100.00;97209.53;5066038;28;20700;-75
2022/01/10 00:34:04;;;;;;;33.87;4.27;;;;;;;4.19;100.00;97209.72;5067070;28;20607;-75
2022/01/10 00:36:31;;;;;;;63.87;5.57;;;;;;;4.10;100.00;97211.16;5065560;28;20694;-76
2022/01/10 00:38:58;;;;;;;32.77;4.03;;;;;;;4.20;100.00;97215.81;5057476;28;20624;-75
2022/01/10 00:41:25;;;;;;;17.73;3.30;;;;;;;3.58;100.00;97213.13;5057034;28;20613;-75
2022/01/10 00:43:52;;;;;;;40.10;4.90;;;;;;;3.56;100.00;97217.81;5066536;28;20644;-75
2022/01/10 00:46:19;;;;;;;13.10;2.33;;;;;;;4.00;100.00;97216.25;5065575;28;20859;-75
2022/01/10 00:48:45;;;;;;;29.20;4.33;;;;;;;3.95;100.00;97224.09;5066645;28;20599;-75
2022/01/10 00:51:13;;;;;;;43.17;4.93;;;;;;;3.95;100.00;97221.44;5066784;28;20634;-75
2022/01/10 00:53:43;;;;;;;29.73;4.23;;;;;;;4.01;100.00;97227.63;5069771;28;20631;-75
2022/01/10 00:56:09;;;;;;;30.17;4.20;;;;;;;3.97;100.00;97227.28;5066039;28;20606;-75
2022/01/10 00:58:37;;;;;;;59.47;7.57;;;;;;;3.96;100.00;97238.88;5064519;28;20610;-75
2022/01/10 01:01:04;;;;;;;32.90;3.97;;;;;;;3.94;100.00;97248.09;5064726;28;20646;-75
2022/01/10 01:03:31;;;;;;;28.80;4.03;;;;;;;3.97;100.00;97259.00;5065662;28;20629;-75
2022/01/10 01:05:57;;;;;;;46.27;4.93;;;;;;;4.08;100.00;97260.00;5065381;28;20614;-75
2022/01/10 01:08:28;;;;;;;57.40;5.13;;;;;;;4.31;100.00;97259.84;5066763;28;20621;-76
2022/01/10 01:13:49;;;;;;;53.33;5.13;;;;;;;4.34;100.00;97280.50;5055943;28;20626;-75
2022/01/10 01:16:19;;;;;;;34.67;4.57;;;;;;;4.18;100.00;97283.94;5065482;28;20618;-75
2022/01/10 01:19:26;;;;;;;63.53;6.00;;;;;;;4.28;100.00;97292.84;5064723;28;20617;-74
2022/01/10 01:24:38;;;;;;;30.57;4.77;;;;;;;3.59;100.00;97308.97;5071550;28;20616;-74
2022/01/10 01:27:06;;;;;;;45.43;3.97;;;;;;;3.55;100.00;97310.47;5066271;28;20598;-75
2022/01/10 01:29:34;;;;;;;41.30;4.60;;;;;;;3.73;100.00;97308.47;5065457;28;20647;-75
2022/01/10 01:32:00;;;;;;;42.53;4.97;;;;;;;3.43;100.00;97315.75;5065606;28;20668;-74
2022/01/10 01:34:27;;;;;;;41.77;4.23;;;;;;;3.10;100.00;97321.63;5064571;28;20614;-76
2022/01/10 01:36:56;;;;;;;40.63;5.50;;;;;;;2.97;100.00;97327.13;5057618;28;20645;-74
2022/01/10 01:39:25;;;;;;;44.43;5.13;;;;;;;3.68;100.00;97323.41;5057145;28;20610;-75
2022/01/10 01:42:00;;;;;;;62.13;6.97;;;;;;;3.89;100.00;97325.41;5065188;28;20701;-75
2022/01/10 01:44:26;;;;;;;55.37;5.33;;;;;;;3.93;100.00;97323.88;5065499;28;20609;-73
2022/01/10 01:46:55;;;;;;;56.33;5.47;;;;;;;3.93;100.00;97329.16;5056441;28;20605;-75
2022/01/10 01:49:22;;;;;;;26.03;4.13;;;;;;;4.02;100.00;97335.72;5065955;28;21014;-74
2022/01/10 01:51:48;;;;;;;49.93;5.60;;;;;;;4.00;100.00;97334.31;5064802;28;20654;-75
2022/01/10 01:54:17;;;;;;;57.57;5.67;;;;;;;3.88;100.00;97330.91;5067513;28;20618;-74
2022/01/10 01:56:45;;;;;;;23.90;3.67;;;;;;;3.87;100.00;97340.69;5063221;28;20686;-74
2022/01/10 01:59:13;;;;;;;40.07;6.10;;;;;;;3.67;100.00;97349.00;5063437;28;20629;-74
2022/01/10 02:01:40;;;;;;;44.53;5.50;;;;;;;3.51;100.00;97344.44;5064400;28;20630;-75
2022/01/10 02:04:07;;;;;;;54.47;5.43;;;;;;;3.48;100.00;97352.00;5065567;28;20590;-74
2022/01/10 02:06:33;;;;;;;35.70;6.27;;;;;;;3.34;100.00;97350.66;5063952;28;20624;-74
2022/01/10 02:09:02;;;;;;;54.37;5.93;;;;;;;3.47;100.00;97348.56;5064863;28;20660;-74
2022/01/10 02:11:29;;;;;;;44.90;5.50;;;;;;;3.54;100.00;97349.25;5064575;28;20667;-75
2022/01/10 02:13:56;;;;;;;35.17;5.30;;;;;;;3.62;100.00;97340.97;5065428;28;20610;-75
2022/01/10 02:16:33;;;;;;;55.53;7.23;;;;;;;3.67;100.00;97350.84;5065565;28;20603;-74
2022/01/10 02:19:00;;;;;;;43.60;5.77;;;;;;;3.53;100.00;97357.41;5060718;28;20606;-75
2022/01/10 02:21:29;;;;;;;64.40;7.37;;;;;;;3.26;100.00;97368.44;5067168;28;20603;-74
2022/01/10 02:23:57;;;;;;;36.60;6.13;;;;;;;3.20;100.00;97379.09;5064367;28;20594;-75
2022/01/10 02:26:24;;;;;;;24.03;6.30;;;;;;;3.22;100.00;97380.47;5069174;28;20637;-75
2022/01/10 02:28:51;;;;;;;55.00;7.87;;;;;;;3.12;100.00;97382.09;5068316;28;20701;-74
2022/01/10 02:31:18;;;;;;;54.77;8.00;;;;;;;3.13;100.00;97383.66;5068661;28;20675;-76
2022/01/10 02:33:46;;;;;;;54.00;6.30;;;;;;;3.23;100.00;97386.56;5068325;28;20641;-74
2022/01/10 02:36:19;;;;;;;42.57;7.20;;;;;;;3.23;100.00;97392.63;5067614;28;20614;-75
2022/01/10 02:38:49;;;;;;;51.53;7.47;;;;;;;3.28;100.00;97397.22;5067368;28;21166;-75
2022/01/10 02:41:21;;;;;;;37.33;7.20;;;;;;;3.30;100.00;97392.53;5067257;28;20614;-75
2022/01/10 02:43:48;;;;;;;47.57;7.53;;;;;;;3.12;100.00;97398.72;5068409;28;20608;-75
2022/01/10 02:46:14;;;;;;;57.40;6.90;;;;;;;3.13;100.00;97408.22;5066755;28;20610;-75
2022/01/10 02:48:41;;;;;;;40.20;6.40;;;;;;;3.25;100.00;97406.38;5068670;28;20599;-75
2022/01/10 02:51:08;;;;;;;50.10;7.83;;;;;;;3.42;100.00;97418.91;5059627;28;20597;-74
2022/01/10 02:53:35;;;;;;;37.00;6.50;;;;;;;3.39;100.00;97419.38;5073101;28;20645;-74
2022/01/10 02:56:03;;;;;;;28.37;6.13;;;;;;;3.36;100.00;97415.38;5068413;28;20595;-75
2022/01/10 02:58:30;;;;;;;48.33;8.70;;;;;;;3.36;100.00;97420.63;5068006;28;20610;-75
2022/01/10 03:00:57;;;;;;;29.87;5.97;;;;;;;3.46;100.00;97420.88;5058375;28;20621;-74
2022/01/10 03:03:26;;;;;;;62.40;9.33;;;;;;;3.58;100.00;97423.50;5067729;28;20622;-74
2022/01/10 03:05:55;;;;;;;54.47;7.57;;;;;;;3.60;100.00;97426.72;5067678;28;20714;-74
2022/01/10 03:08:22;;;;;;;36.97;7.63;;;;;;;3.09;100.00;97432.66;5066921;28;20602;-76
2022/01/10 03:10:49;;;;;;;50.33;7.57;;;;;;;3.06;100.00;97433.91;5067668;28;20598;-75
2022/01/10 03:13:17;;;;;;;51.50;7.60;;;;;;;3.14;100.00;97444.13;5067393;28;20677;-75
2022/01/10 03:15:44;;;;;;;38.03;6.67;;;;;;;3.19;100.00;97451.34;5067384;28;20677;-76
2022/01/10 03:18:11;;;;;;;67.17;9.40;;;;;;;3.23;100.00;97447.25;5067897;28;20618;-76
2022/01/10 03:20:38;;;;;;;45.70;7.87;;;;;;;3.31;100.00;97461.94;5067261;28;20603;-76
2022/01/10 03:23:05;;;;;;;99.03;10.93;;;;;;;3.31;100.00;97459.31;5068012;28;20627;-75
2022/01/10 03:25:31;;;;;;;68.37;8.17;;;;;;;3.31;100.00;97465.41;5070891;28;20602;-74
2022/01/10 03:27:58;;;;;;;47.77;7.50;;;;;;;3.32;100.00;97463.53;5067175;28;20860;-75
2022/01/10 03:30:28;;;;;;;21.97;6.17;;;;;;;3.29;100.00;97478.00;5067852;28;20602;-75
2022/01/10 03:32:57;;;;;;;60.43;7.83;;;;;;;3.32;100.00;97471.44;5054525;28;20670;-75
2022/01/10 03:35:24;;;;;;;41.87;7.80;;;;;;;3.34;100.00;97466.78;5063387;28;20599;-76
2022/01/10 03:37:51;;;;;;;50.77;7.07;;;;;;;3.32;100.00;97468.81;5066084;28;20684;-75
2022/01/10 03:40:18;;;;;;;48.87;8.20;;;;;;;3.32;100.00;97482.00;5066339;28;20606;-75
2022/01/10 03:42:44;;;;;;;29.17;6.57;;;;;;;3.28;100.00;97479.81;5056669;28;20606;-74
2022/01/10 03:45:11;;;;;;;23.97;8.03;;;;;;;3.25;100.00;97482.91;5065308;28;20618;-75
2022/01/10 03:47:40;;;;;;;56.43;8.80;;;;;;;3.26;100.00;97483.72;5064802;28;20633;-75
2022/01/10 03:50:07;;;;;;;27.27;6.63;;;;;;;3.21;100.00;97486.25;5056718;28;20598;-75
2022/01/10 03:52:34;;;;;;;31.80;6.80;;;;;;;3.11;100.00;97491.25;5064576;28;21260;-75
2022/01/10 03:55:01;;;;;;;29.70;7.50;;;;;;;3.18;100.00;97486.69;5065831;28;21201;-75
2022/01/10 03:57:27;;;;;;;35.47;7.67;;;;;;;3.15;100.00;97487.97;5064804;28;20637;-75
2022/01/10 03:59:54;;;;;;;43.40;9.10;;;;;;;3.48;100.00;97482.16;5064640;28;20603;-75
2022/01/10 04:02:22;;;;;;;44.77;8.03;;;;;;;3.55;100.00;97482.88;5064604;28;20583;-75
2022/01/10 04:04:50;;;;;;;52.97;8.00;;;;;;;3.64;100.00;97485.97;5065689;28;20612;-75
2022/01/10 04:07:18;;;;;;;40.50;8.37;;;;;;;3.71;100.00;97498.00;5064853;28;20618;-74
2022/01/10 04:09:47;;;;;;;90.27;9.93;;;;;;;3.73;100.00;97506.53;5065718;28;20626;-76
2022/01/10 04:12:13;;;;;;;61.67;8.87;;;;;;;3.79;100.00;97507.44;5065458;28;20646;-74
2022/01/10 04:14:40;;;;;;;55.70;9.03;;;;;;;3.78;100.00;97508.44;5065661;28;20637;-75
2022/01/10 04:17:07;;;;;;;23.43;6.63;;;;;;;3.72;100.00;97504.09;5064529;28;20617;-75
2022/01/10 04:19:33;;;;;;;49.60;9.60;;;;;;;3.68;100.00;97502.97;5056080;28;20644;-74
2022/01/10 04:22:03;;;;;;;42.97;8.53;;;;;;;3.76;100.00;97506.06;5065581;28;20693;-75
2022/01/10 04:24:30;;;;;;;34.17;7.63;;;;;;;3.74;100.00;97508.09;5069782;28;20607;-75
2022/01/10 04:26:57;;;;;;;42.63;8.03;;;;;;;3.76;100.00;97510.53;5065490;28;20598;-75
2022/01/10 04:29:23;;;;;;;25.23;7.30;;;;;;;3.76;100.00;97515.81;5065613;28;20607;-75
2022/01/10 04:31:50;;;;;;;43.87;8.30;;;;;;;3.75;100.00;97520.28;5065194;28;20610;-75
2022/01/10 04:34:17;;;;;;;28.57;7.63;;;;;;;3.73;100.00;97516.28;5065317;28;20653;-75
2022/01/10 04:36:43;;;;;;;49.33;8.17;;;;;;;3.79;100.00;97525.91;5065260;28;20611;-75
2022/01/10 04:39:12;;;;;;;41.53;6.93;;;;;;;3.80;100.00;97528.34;5064775;28;20611;-75
2022/01/10 04:41:39;;;;;;;61.37;8.67;;;;;;;3.81;100.00;97529.13;5064732;28;20636;-75
2022/01/10 04:44:07;;;;;;;56.90;6.97;;;;;;;3.77;100.00;97533.28;5063688;28;20629;-75
2022/01/10 04:46:34;;;;;;;18.90;4.23;;;;;;;3.81;100.00;97539.69;5063970;28;20632;-75
2022/01/10 04:49:02;;;;;;;38.80;5.17;;;;;;;3.79;100.00;97541.78;5065582;28;20650;-75
2022/01/10 04:51:29;;;;;;;77.03;6.83;;;;;;;3.82;100.00;97546.59;5064832;28;20625;-75
2022/01/10 04:53:56;;;;;;;37.60;4.97;;;;;;;3.84;100.00;97554.31;5067552;28;20656;-75
2022/01/10 04:56:24;;;;;;;49.57;4.87;;;;;;;3.84;100.00;97552.44;5065048;28;20644;-75
2022/01/10 04:58:52;;;;;;;31.93;5.47;;;;;;;3.85;100.00;97546.13;5064871;28;20638;-75
2022/01/10 05:01:19;;;;;;;49.53;7.30;;;;;;;3.82;100.00;97557.16;5066384;28;20641;-75
2022/01/10 05:03:46;;;;;;;75.93;7.50;;;;;;;3.81;100.00;97559.00;5065993;28;20602;-75
2022/01/10 05:06:13;;;;;;;59.10;7.27;;;;;;;3.83;100.00;97560.59;5064534;28;20637;-75
2022/01/10 05:08:39;;;;;;;69.60;7.50;;;;;;;3.85;100.00;97574.38;5064563;28;20603;-75
2022/01/10 05:11:06;;;;;;;45.33;5.23;;;;;;;3.88;100.00;97576.56;5066020;28;20603;-75
2022/01/10 05:13:34;;;;;;;20.37;4.37;;;;;;;3.81;100.00;97576.66;5056128;28;20646;-75
2022/01/10 05:16:01;;;;;;;68.57;7.37;;;;;;;3.85;100.00;97583.13;5065566;28;20683;-74
2022/01/10 05:18:28;;;;;;;31.93;5.13;;;;;;;3.89;100.00;97578.19;5065428;28;20594;-74
2022/01/10 05:20:55;;;;;;;71.33;7.53;;;;;;;3.90;100.00;97585.88;5057387;28;20586;-74
2022/01/10 05:23:22;;;;;;;30.00;4.70;;;;;;;3.92;100.00;97583.81;5059828;28;20637;-76
2022/01/10 05:25:49;;;;;;;53.30;6.60;;;;;;;3.85;100.00;97588.41;5065700;28;20614;-74
2022/01/10 05:28:19;;;;;;;49.87;6.10;;;;;;;3.89;100.00;97586.09;5064280;28;20598;-74
2022/01/10 05:30:48;;;;;;;51.87;6.17;;;;;;;3.67;100.00;97594.56;5064058;28;20610;-74
2022/01/10 05:33:15;;;;;;;35.37;5.47;;;;;;;3.50;100.00;97598.06;5065235;28;20653;-75
2022/01/10 05:35:44;;;;;;;58.10;6.83;;;;;;;3.48;100.00;97602.78;5064615;28;20598;-74
2022/01/10 05:38:11;;;;;;;30.30;6.00;;;;;;;3.47;100.00;97601.16;5065816;28;20664;-74
2022/01/10 05:40:38;;;;;;;30.33;6.00;;;;;;;3.46;100.00;97613.56;5063953;28;20606;-74
2022/01/10 05:43:05;;;;;;;37.53;5.80;;;;;;;3.39;100.00;97612.84;5064206;28;20626;-74
2022/01/10 05:45:31;;;;;;;49.00;7.07;;;;;;;3.33;100.00;97615.59;5065137;28;20602;-74
2022/01/10 05:48:07;;;;;;;47.70;7.40;;;;;;;3.26;100.00;97619.13;5065147;28;20609;-74
2022/01/10 05:50:35;;;;;;;53.27;7.90;;;;;;;3.23;100.00;97619.56;5064132;28;20656;-74
2022/01/10 05:53:03;;;;;;;40.93;5.90;;;;;;;3.20;100.00;97627.13;5067491;28;20724;-75
2022/01/10 05:55:30;;;;;;;75.97;9.87;;;;;;;3.20;100.00;97635.03;5071488;28;20726;-74
2022/01/10 05:57:57;;;;;;;67.83;8.40;;;;;;;3.28;100.00;97640.78;5059709;28;20598;-75
2022/01/10 06:00:24;;;;;;;73.73;7.70;;;;;;;3.28;100.00;97646.06;5068510;28;20630;-75
2022/01/10 06:02:51;;;;;;;63.63;8.70;;;;;;;3.26;100.00;97653.41;5068548;28;20602;-75
2022/01/10 06:05:19;;;;;;;50.97;7.50;;;;;;;3.28;100.00;97646.06;5069371;28;20609;-74
2022/01/10 06:07:46;;;;;;;73.53;9.17;;;;;;;3.41;100.00;97652.22;5069104;28;20610;-74
2022/01/10 06:10:13;;;;;;;73.63;8.97;;;;;;;3.54;100.00;97657.31;5069305;28;20602;-74
2022/01/10 06:12:40;;;;;;;65.70;7.80;;;;;;;3.62;100.00;97657.03;5068084;28;20616;-75
2022/01/10 06:15:08;;;;;;;64.90;8.03;;;;;;;3.58;100.00;97663.78;5069204;28;20622;-76
2022/01/10 06:17:35;;;;;;;72.70;8.27;;;;;;;3.56;100.00;97671.13;5068438;28;20606;-74
2022/01/10 06:20:03;;;;;;;46.17;6.17;;;;;;;3.54;100.00;97660.75;5067417;28;20702;-75
2022/01/10 06:22:31;;;;;;;50.80;6.37;;;;;;;3.61;100.00;97665.97;5067055;28;20697;-75
2022/01/10 06:24:58;;;;;;;55.47;7.53;;;;;;;3.62;100.00;97668.38;5068460;28;20609;-74
2022/01/10 06:27:24;;;;;;;60.50;7.87;;;;;;;3.64;100.00;97673.44;5067308;28;20614;-74
2022/01/10 06:29:51;;;;;;;37.20;6.20;;;;;;;3.71;100.00;97682.06;5066848;28;20595;-75
2022/01/10 06:32:18;;;;;;;42.40;7.00;;;;;;;3.72;100.00;97683.66;5067133;28;20594;-74
2022/01/10 06:34:45;;;;;;;90.47;10.03;;;;;;;3.71;100.00;97692.63;5067038;28;21516;-74
2022/01/10 06:37:11;;;;;;;55.13;8.90;;;;;;;3.76;100.00;97688.28;5066876;28;20656;-74
2022/01/10 06:39:40;;;;;;;43.37;7.10;;;;;;;3.81;100.00;97693.69;5068104;28;21229;-75
2022/01/10 06:42:07;;;;;;;82.47;24.57;;;;;;;3.72;100.00;97694.22;5067623;28;20603;-75
2022/01/10 06:44:34;;;;;;;48.37;8.90;;;;;;;3.77;100.00;97704.94;5068860;28;20652;-74
2022/01/10 06:47:00;;;;;;;73.03;9.20;;;;;;;3.69;100.00;97708.69;5067787;28;20660;-74
2022/01/10 06:49:27;;;;;;;39.33;6.80;;;;;;;3.63;100.00;97712.22;5068808;28;20936;-74
2022/01/10 06:51:54;;;;;;;46.67;8.03;;;;;;;3.64;100.00;97708.56;5055232;28;20650;-75
2022/01/10 06:54:20;;;;;;;44.30;7.43;;;;;;;3.70;100.00;97722.72;5067187;28;20653;-75
2022/01/10 06:56:49;;;;;;;41.50;7.50;;;;;;;3.67;100.00;97728.44;5067086;28;21283;-75
2022/01/10 06:59:15;;;;;;;75.60;8.50;;;;;;;3.59;100.00;97728.75;5068033;28;20629;-75
2022/01/10 07:01:42;;;;;;;93.57;10.47;;;;;;;3.44;100.00;97733.59;5067538;28;20612;-75
2022/01/10 07:04:09;;;;;;;59.10;7.70;;;;;;;3.34;100.00;97733.34;5067794;28;20908;-73
2022/01/10 07:06:35;;;;;;;60.90;8.73;;;;;;;3.43;100.00;97745.19;5067064;28;20621;-74
2022/01/10 07:09:02;;;;;;;50.90;8.43;;;;;;;3.48;100.00;97745.34;5068467;28;20598;-74
2022/01/10 07:11:29;;;;;;;55.07;9.50;;;;;;;3.39;100.00;97758.03;5068588;28;21262;-74
2022/01/10 07:13:57;;;;;;;72.70;9.97;;;;;;;3.28;100.00;97764.03;5060419;28;20672;-74
2022/01/10 07:16:24;;;;;;;117.77;12.23;;;;;;;3.20;100.00;97767.78;5067622;28;20603;-74
2022/01/10 07:18:51;;;;;;;90.37;9.93;;;;;;;3.13;100.00;97782.06;5067307;28;20594;-74
2022/01/10 07:21:18;;;;;;;52.60;8.43;;;;;;;3.07;100.00;97780.28;5068441;28;20709;-74
2022/01/10 07:23:44;;;;;;;50.50;8.47;;;;;;;2.92;100.00;97782.47;5068093;28;20586;-74
2022/01/10 07:26:11;;;;;;;37.17;7.10;;;;;;;3.01;100.00;97781.16;5067850;28;20602;-74
2022/01/10 07:28:38;;;;;;;77.87;10.07;;;;;;;3.19;100.00;97805.75;5066178;28;20632;-74
2022/01/10 07:31:06;;;;;;;59.90;8.80;;;;;;;3.20;100.00;97802.09;5066957;28;20621;-74
2022/01/10 07:33:32;;;;;;;34.40;7.37;;;;;;;3.25;100.00;97815.41;5067117;28;20645;-74
2022/01/10 07:35:59;;;;;;;61.27;9.67;;;;;;;3.33;100.00;97821.44;5067140;28;20621;-74
2022/01/10 07:38:26;;;;;;;60.17;9.00;;;;;;;3.47;100.00;97820.25;5067081;28;21068;-75
2022/01/10 07:40:52;;;;;;;54.47;9.30;;;;;;;3.37;100.00;97822.63;5066750;28;21344;-74
2022/01/10 07:43:19;;;;;;;64.00;9.20;;;;;;;3.36;100.00;97831.56;5066586;28;20631;-75
2022/01/10 07:45:46;;;;;;;74.37;10.30;;;;;;;3.43;100.00;97842.88;5066357;28;20610;-75
2022/01/10 07:48:14;;;;;;;40.83;7.07;;;;;;;3.53;100.00;97838.69;5067439;28;20602;-73
2022/01/10 07:50:40;;;;;;;36.80;7.83;;;;;;;3.55;100.00;97844.56;5066793;28;20591;-75
2022/01/10 07:53:08;;;;;;;62.87;10.37;;;;;;;3.65;100.00;97844.06;5068129;28;20607;-74
2022/01/10 07:55:35;;;;;;;35.10;7.23;;;;;;;3.49;100.00;97852.56;5070275;28;20638;-73
2022/01/10 07:58:02;;;;;;;39.77;8.27;;;;;;;3.80;100.00;97845.31;5068092;28;20610;-76
2022/01/10 08:00:29;;;;;;;50.23;8.63;;;;;;;3.83;100.00;97865.19;5066864;28;20603;-74
2022/01/10 08:02:56;;;;;;;61.83;9.97;;;;;;;3.89;100.00;97853.72;5058262;28;20606;-75
2022/01/10 08:05:25;;;;;;;60.37;9.40;;;;;;;3.95;100.00;97868.69;5066341;28;21616;-75
2022/01/10 08:07:52;;;;;;;96.53;11.63;;;;;;;3.98;100.00;97870.88;5065652;28;20613;-74
2022/01/10 08:10:19;;;;;;;44.33;7.90;;;;;;;3.57;100.00;97871.53;5065788;28;20602;-76
2022/01/10 08:12:46;;;;;;;69.47;9.43;;;;;;;3.28;100.00;97875.69;5065238;28;20602;-75
2022/01/10 08:15:13;;;;;;;92.80;10.67;;;;;;;4.09;100.00;97874.59;5063248;28;20658;-75
2022/01/10 08:17:41;;;;;;;77.70;9.83;;;;;;;4.20;100.00;97871.22;5064130;28;20606;-74
2022/01/10 08:20:10;;;;;;;60.17;10.10;;;;;;;4.25;100.00;97880.09;5064491;28;20649;-74
2022/01/10 08:22:38;;;;;;;106.43;12.40;;;;;;;4.17;100.00;97884.88;5061674;28;20607;-74
2022/01/10 08:25:07;;;;;;;47.03;8.80;;;;;;;4.06;100.00;97886.44;5072787;28;20641;-74
2022/01/10 08:27:34;;;;;;;72.70;10.40;;;;;;;4.31;100.00;97889.78;5064674;28;20697;-75
2022/01/10 08:30:01;;;;;;;58.67;8.80;;;;;;;3.90;100.00;97891.53;5066086;28;20605;-74
2022/01/10 08:32:28;;;;;;;35.10;7.83;;;;;;;3.56;100.00;97885.75;5066030;28;20681;-74
2022/01/10 08:34:55;;;;;;;54.00;8.83;;;;;;;3.48;100.00;97898.44;5065979;28;20652;-74
2022/01/10 08:37:22;;;;;;;98.93;11.10;;;;;;;3.93;100.00;97905.06;5066285;28;20602;-75
2022/01/10 08:39:51;;;;;;;32.70;7.17;;;;;;;4.32;100.00;97896.69;5066324;28;20621;-74
2022/01/10 08:42:19;;;;;;;39.60;7.97;;;;;;;4.38;100.00;97904.75;5065648;28;20657;-74
2022/01/10 08:44:46;;;;;;;42.67;7.70;;;;;;;4.15;100.00;97910.72;5065262;28;20637;-75
2022/01/10 08:47:15;;;;;;;63.30;8.63;;;;;;;4.25;100.00;97911.00;5066816;28;20599;-75
2022/01/10 08:49:42;;;;;;;85.90;10.80;;;;;;;4.18;100.00;97921.66;5066937;28;20598;-74
2022/01/10 08:52:09;;;;;;;63.33;8.97;;;;;;;4.37;100.00;97919.78;5066105;28;20613;-74
2022/01/10 08:54:38;;;;;;;58.53;8.97;;;;;;;4.43;100.00;97941.88;5071909;28;20649;-74
2022/01/10 08:57:06;;;;;;;56.17;8.87;;;;;;;4.23;100.00;97934.22;5065120;28;20621;-74
2022/01/10 08:59:34;;;;;;;40.77;8.37;;;;;;;4.36;100.00;97939.34;5065887;28;20594;-74
2022/01/10 09:02:01;;;;;;;61.43;9.33;;;;;;;4.46;100.00;97947.53;5065810;28;20598;-75
2022/01/10 09:04:28;;;;;;;56.67;9.90;;;;;;;4.29;100.00;97952.66;5064764;28;20609;-75
2022/01/10 09:06:56;;;;;;;66.30;10.23;;;;;;;4.27;100.00;97956.53;5066426;28;20606;-75
2022/01/10 09:09:23;;;;;;;58.53;9.73;;;;;;;4.14;100.00;97970.72;5065211;28;20640;-75
2022/01/10 09:11:50;;;;;;;39.83;7.97;;;;;;;4.22;100.00;97973.06;5066735;28;20614;-75
2022/01/10 09:14:20;;;;;;;80.40;10.37;;;;;;;3.94;100.00;97979.84;5064862;28;20654;-74
2022/01/10 09:16:48;;;;;;;39.67;8.07;;;;;;;3.94;100.00;97988.59;5066745;28;20698;-74
2022/01/10 09:19:15;;;;;;;44.90;8.40;;;;;;;4.04;100.00;97988.09;5065649;28;20610;-73
2022/01/10 09:21:42;;;;;;;32.50;8.07;;;;;;;4.04;100.00;97996.84;5064983;28;20602;-74
2022/01/10 09:24:09;;;;;;;44.17;9.40;;;;;;;4.08;100.00;97991.94;5065549;28;21481;-75
2022/01/10 09:26:37;;;;;;;67.00;10.37;;;;;;;4.17;100.00;97983.50;5067987;28;20605;-75
2022/01/10 09:29:03;;;;;;;73.97;10.23;;;;;;;4.12;100.00;98009.75;5070888;28;20598;-74
2022/01/10 09:31:33;;;;;;;75.30;9.93;;;;;;;4.05;100.00;98011.69;5069624;28;21381;-74
2022/01/10 09:34:00;;;;;;;59.03;9.57;;;;;;;4.11;100.00;98010.81;5068563;28;20642;-74
2022/01/10 09:36:31;;;;;;;43.37;8.00;;;;;;;4.31;100.00;98005.28;5068670;28;20590;-74
2022/01/10 09:38:58;;;;;;;95.47;11.03;;;;;;;4.35;100.00;98014.41;5055644;28;21276;-74
2022/01/10 09:41:26;;;;;;;29.67;8.10;;;;;;;4.45;100.00;98017.34;5064103;28;20622;-74
2022/01/10 09:43:57;;;;;;;91.33;10.40;;;;;;;4.44;100.00;98021.00;5067037;28;20622;-74
2022/01/10 09:46:25;;;;;;;98.63;12.87;;;;;;;3.92;100.00;98029.47;5067889;28;20673;-74
2022/01/10 09:48:55;;;;;;;97.90;11.30;;;;;;;4.07;100.00;98036.03;5067640;28;21261;-74
2022/01/10 09:51:26;;;;;;;73.73;9.77;;;;;;;3.68;100.00;98039.03;5068483;28;20611;-74
2022/01/10 09:53:54;;;;;;;55.67;9.67;;;;;;;3.61;100.00;98046.19;5067968;28;20637;-74
2022/01/10 09:56:21;;;;;;;66.70;11.20;;;;;;;3.54;100.00;98046.25;5067622;28;20629;-74
2022/01/10 09:58:48;;;;;;;69.27;11.80;;;;;;;3.57;100.00;98052.94;5067506;28;20594;-74
2022/01/10 10:01:16;;;;;;;76.53;11.17;;;;;;;3.54;100.00;98062.09;5068660;28;20676;-74
2022/01/10 10:03:44;;;;;;;65.83;11.83;;;;;;;3.57;100.00;98064.31;5066730;28;20621;-74
2022/01/10 10:06:12;;;;;;;69.50;11.80;;;;;;;3.66;100.00;98065.66;5067964;28;20602;-75
2022/01/10 10:08:40;;;;;;;107.80;12.33;;;;;;;3.60;100.00;98068.34;5073446;28;20610;-75
2022/01/10 10:11:07;;;;;;;80.60;11.43;;;;;;;3.54;100.00;98074.47;5066646;28;20632;-75
2022/01/10 10:13:42;;;;;;;94.17;12.03;;;;;;;3.70;100.00;98082.69;5066344;28;21417;-75
2022/01/10 10:16:14;;;;;;;68.60;10.87;;;;;;;3.57;100.00;98084.63;5067810;28;20666;-75
2022/01/10 10:18:41;;;;;;;82.73;12.80;;;;;;;3.61;100.00;98093.72;5066145;28;20618;-75
2022/01/10 10:21:13;;;;;;;63.63;9.90;;;;;;;3.48;100.00;98104.38;5067854;28;20632;-74
2022/01/10 10:23:40;;;;;;;87.63;12.33;;;;;;;3.51;100.00;98099.47;5070761;28;20616;-74
2022/01/10 10:26:08;;;;;;;93.57;12.37;;;;;;;3.55;100.00;98102.50;5065966;28;20690;-74
2022/01/10 10:28:37;;;;;;;48.40;9.07;;;;;;;3.59;100.00;98106.34;5067194;28;20664;-74
2022/01/10 10:31:03;;;;;;;91.33;11.50;;;;;;;3.65;100.00;98111.56;5066897;28;20694;-74
2022/01/10 10:33:30;;;;;;;96.17;12.03;;;;;;;3.62;100.00;98106.72;5067192;28;20599;-74
2022/01/10 10:36:00;;;;;;;97.50;11.43;;;;;;;3.58;100.00;98110.81;5058762;28;20668;-74
2022/01/10 10:38:28;;;;;;;56.47;10.13;;;;;;;3.62;100.00;98105.94;5064742;28;21240;-74
2022/01/10 10:40:59;;;;;;;77.57;11.50;;;;;;;3.55;100.00;98113.06;5066680;28;20629;-73
2022/01/10 10:43:26;;;;;;;73.43;12.00;;;;;;;3.58;100.00;98117.94;5066705;28;20605;-73
2022/01/10 10:45:53;;;;;;;71.37;11.00;;;;;;;3.60;100.00;98121.16;5065455;28;20602;-73
2022/01/10 10:48:19;;;;;;;77.17;10.90;;;;;;;3.54;100.00;98127.28;5066620;28;20594;-73
2022/01/10 10:50:47;;;;;;;95.43;13.43;;;;;;;3.62;100.00;98127.06;5067520;28;20602;-74
2022/01/10 10:53:15;;;;;;;70.87;11.33;;;;;;;3.56;100.00;98133.19;5067290;28;20690;-74
2022/01/10 10:55:45;;;;;;;58.27;10.83;;;;;;;3.53;100.00;98133.63;5066116;28;20658;-74
2022/01/10 10:58:13;;;;;;;66.17;11.37;;;;;;;3.54;100.00;98143.13;5067356;28;20606;-75
2022/01/10 11:00:40;;;;;;;58.83;12.03;;;;;;;3.66;100.00;98125.59;5067004;28;21382;-75
2022/01/10 11:03:09;;;;;;;77.43;10.40;;;;;;;3.53;100.00;98141.53;5066373;28;20979;-76
2022/01/10 11:05:36;;;;;;;86.93;12.50;;;;;;;3.57;100.00;98135.59;5065192;28;20618;-75
2022/01/10 11:08:03;;;;;;;70.07;11.67;;;;;;;3.56;100.00;98149.03;5064863;28;20594;-74
2022/01/10 11:10:30;;;;;;;92.03;13.20;;;;;;;3.50;100.00;98147.22;5066286;28;20602;-74
2022/01/10 11:13:02;;;;;;;78.43;12.63;;;;;;;3.57;100.00;98146.16;5053260;28;20604;-74
2022/01/10 11:15:31;;;;;;;69.27;12.93;;;;;;;3.62;100.00;98143.69;5060879;28;20706;-75
2022/01/10 11:18:01;;;;;;;69.27;11.40;;;;;;;3.63;100.00;98141.84;5053147;28;20633;-74
2022/01/10 11:20:28;;;;;;;61.97;9.07;;;;;;;3.71;100.00;98147.69;5060898;28;20633;-75
2022/01/10 11:22:57;;;;;;;61.07;10.67;;;;;;;3.70;100.00;98158.47;5063623;28;20645;-74
2022/01/10 11:25:27;;;;;;;56.57;10.43;;;;;;;3.81;100.00;98161.25;5069422;28;20594;-75
2022/01/10 11:27:55;;;;;;;60.60;9.90;;;;;;;3.87;100.00;98156.91;5066137;28;20587;-74
2022/01/10 11:30:32;;;;;;;58.47;10.57;;;;;;;3.86;100.00;98168.53;5064883;28;20617;-75
2022/01/10 11:33:06;;;;;;;70.03;11.57;;;;;;;3.91;100.00;98158.13;5073250;28;20606;-75